sensor_id;sensor_type;location;lat;lon;timestamp;pressure;altitude;pressure_sealevel;temperature;humidity
10470;BME280;5282;47.052;15.458;2022-08-14T00:01:36;97147.59;;;16.40;100.00
10470;BME280;5282;47.052;15.458;2022-08-14T00:04:03;97140.47;;;16.46;100.00
10470;BME280;5282;47.052;15.458;2022-08-14T00:06:30;97139.84;;;16.44;100.00
10470;BME280;5282;47.052;15.458;2022-08-14T00:08:57;97140.25;;;16.47;100.00
10470;BME280;5282;47.052;15.458;2022-08-14T00:11:26;97131.94;;;16.35;100.00
10470;BME280;5282;47.052;15.458;2022-08-14T00:13:53;97132.84;;;16.16;100.00
10470;BME280;5282;47.052;15.458;2022-08-14T00:16:20;97129.53;;;16.07;100.00
10470;BME280;5282;47.052;15.458;2022-08-14T00:18:48;97134.50;;;16.17;100.00
10470;BME280;5282;47.052;15.458;2022-08-14T00:21:16;97130.94;;;16.23;100.00
10470;BME280;5282;47.052;15.458;2022-08-14T00:23:43;97124.63;;;16.29;100.00
10470;BME280;5282;47.052;15.458;2022-08-14T00:26:10;97131.13;;;16.28;100.00
10470;BME280;5282;47.052;15.458;2022-08-14T00:28:37;97118.56;;;16.34;100.00
10470;BME280;5282;47.052;15.458;2022-08-14T00:31:05;97118.81;;;16.26;100.00
10470;BME280;5282;47.052;15.458;2022-08-14T00:33:32;97115.03;;;16.27;100.00
10470;BME280;5282;47.052;15.458;2022-08-14T00:36:00;97118.81;;;16.26;100.00
10470;BME280;5282;47.052;15.458;2022-08-14T00:38:27;97110.06;;;16.17;100.00
10470;BME280;5282;47.052;15.458;2022-08-14T00:40:54;97111.75;;;16.11;100.00
10470;BME280;5282;47.052;15.458;2022-08-14T00:43:21;97112.56;;;16.18;100.00
10470;BME280;5282;47.052;15.458;2022-08-14T00:45:48;97110.28;;;16.09;100.00
10470;BME280;5282;47.052;15.458;2022-08-14T00:48:15;97102.16;;;16.09;100.00
10470;BME280;5282;47.052;15.458;2022-08-14T00:50:43;97107.19;;;16.05;100.00
10470;BME280;5282;47.052;15.458;2022-08-14T00:53:12;97111.75;;;16.11;100.00
10470;BME280;5282;47.052;15.458;2022-08-14T00:55:41;97107.56;;;16.09;100.00
10470;BME280;5282;47.052;15.458;2022-08-14T00:58:09;97107.19;;;16.05;100.00
10470;BME280;5282;47.052;15.458;2022-08-14T01:01:00;97100.47;;;16.08;100.00
10470;BME280;5282;47.052;15.458;2022-08-14T01:03:36;97092.34;;;16.08;100.00
10470;BME280;5282;47.052;15.458;2022-08-14T01:06:13;97107.00;;;15.80;100.00
10470;BME280;5282;47.052;15.458;2022-08-14T01:08:52;97099.69;;;15.87;100.00
10470;BME280;5282;47.052;15.458;2022-08-14T01:11:21;97096.75;;;15.95;100.00
10470;BME280;5282;47.052;15.458;2022-08-14T01:13:48;97100.97;;;15.91;100.00
10470;BME280;5282;47.052;15.458;2022-08-14T01:16:17;97100.50;;;15.94;100.00
10470;BME280;5282;47.052;15.458;2022-08-14T01:18:47;97098.88;;;15.93;100.00
10470;BME280;5282;47.052;15.458;2022-08-14T01:21:34;97098.88;;;15.93;100.00
10470;BME280;5282;47.052;15.458;2022-08-14T01:24:02;97097.84;;;15.87;100.00
10470;BME280;5282;47.052;15.458;2022-08-14T01:26:33;97095.69;;;15.83;100.00
10470;BME280;5282;47.052;15.458;2022-08-14T01:29:04;97102.81;;;15.84;100.00
10470;BME280;5282;47.052;15.458;2022-08-14T01:31:33;97099.25;;;15.83;100.00
10470;BME280;5282;47.052;15.458;2022-08-14T01:34:03;97091.75;;;15.79;100.00
10470;BME280;5282;47.052;15.458;2022-08-14T01:36:33;97105.34;;;15.72;100.00
10470;BME280;5282;47.052;15.458;2022-08-14T01:39:06;97099.28;;;15.63;100.00
10470;BME280;5282;47.052;15.458;2022-08-14T01:41:34;97102.22;;;15.55;100.00
10470;BME280;5282;47.052;15.458;2022-08-14T01:44:05;97093.88;;;15.63;100.00
10470;BME280;5282;47.052;15.458;2022-08-14T01:46:36;97102.22;;;15.62;100.00
10470;BME280;5282;47.052;15.458;2022-08-14T01:49:08;97091.56;;;15.60;100.00
10470;BME280;5282;47.052;15.458;2022-08-14T01:51:37;97085.53;;;15.58;100.00
10470;BME280;5282;47.052;15.458;2022-08-14T01:54:08;97089.94;;;15.46;100.00
10470;BME280;5282;47.052;15.458;2022-08-14T01:56:36;97088.03;;;15.53;100.00
10470;BME280;5282;47.052;15.458;2022-08-14T01:59:05;97089.50;;;15.29;100.00
10470;BME280;5282;47.052;15.458;2022-08-14T02:01:32;97093.28;;;15.41;100.00
10470;BME280;5282;47.052;15.458;2022-08-14T02:04:01;97093.06;;;15.42;100.00
10470;BME280;5282;47.052;15.458;2022-08-14T02:06:28;97094.72;;;15.37;100.00
10470;BME280;5282;47.052;15.458;2022-08-14T02:08:57;97090.34;;;15.42;100.00
10470;BME280;5282;47.052;15.458;2022-08-14T02:11:29;97089.06;;;15.38;100.00
10470;BME280;5282;47.052;15.458;2022-08-14T02:13:59;97095.97;;;15.34;100.00
10470;BME280;5282;47.052;15.458;2022-08-14T02:16:30;97094.31;;;15.40;100.00
10470;BME280;5282;47.052;15.458;2022-08-14T02:19:04;97098.25;;;15.37;100.00
10470;BME280;5282;47.052;15.458;2022-08-14T02:21:33;97090.56;;;15.34;100.00
10470;BME280;5282;47.052;15.458;2022-08-14T02:24:04;97093.06;;;15.42;100.00
10470;BME280;5282;47.052;15.458;2022-08-14T02:26:34;97088.66;;;15.21;100.00
10470;BME280;5282;47.052;15.458;2022-08-14T02:29:04;97095.53;;;15.31;100.00
10470;BME280;5282;47.052;15.458;2022-08-14T02:31:33;97096.38;;;15.18;100.00
10470;BME280;5282;47.052;15.458;2022-08-14T02:34:03;97092.00;;;15.17;100.00
10470;BME280;5282;47.052;15.458;2022-08-14T02:36:32;97083.44;;;15.00;100.00
10470;BME280;5282;47.052;15.458;2022-08-14T02:38:58;97089.66;;;14.80;100.00
10470;BME280;5282;47.052;15.458;2022-08-14T02:41:29;97088.78;;;14.66;100.00
10470;BME280;5282;47.052;15.458;2022-08-14T02:43:56;97092.50;;;14.58;100.00
10470;BME280;5282;47.052;15.458;2022-08-14T02:46:23;97089.25;;;14.76;100.00
10470;BME280;5282;47.052;15.458;2022-08-14T02:48:50;97087.94;;;14.65;100.00
10470;BME280;5282;47.052;15.458;2022-08-14T02:51:17;97080.06;;;14.71;100.00
10470;BME280;5282;47.052;15.458;2022-08-14T02:53:45;97078.84;;;14.87;100.00
10470;BME280;5282;47.052;15.458;2022-08-14T02:56:16;97080.50;;;14.88;100.00
10470;BME280;5282;47.052;15.458;2022-08-14T02:58:48;97081.75;;;14.92;100.00
10470;BME280;5282;47.052;15.458;2022-08-14T03:01:16;97078.66;;;15.02;100.00
10470;BME280;5282;47.052;15.458;2022-08-14T03:03:44;97077.59;;;15.03;100.00
10470;BME280;5282;47.052;15.458;2022-08-14T03:06:13;97077.19;;;15.06;100.00
10470;BME280;5282;47.052;15.458;2022-08-14T03:08:41;97079.28;;;15.04;100.00
10470;BME280;5282;47.052;15.458;2022-08-14T03:11:10;97083.84;;;15.03;100.00
10470;BME280;5282;47.052;15.458;2022-08-14T03:13:38;97083.63;;;14.78;100.00
10470;BME280;5282;47.052;15.458;2022-08-14T03:16:10;97079.66;;;14.87;100.00
10470;BME280;5282;47.052;15.458;2022-08-14T03:18:40;97083.81;;;14.90;100.00
10470;BME280;5282;47.052;15.458;2022-08-14T03:21:13;97076.56;;;14.97;100.00
10470;BME280;5282;47.052;15.458;2022-08-14T03:23:43;97079.03;;;14.92;100.00
10470;BME280;5282;47.052;15.458;2022-08-14T03:26:14;97081.56;;;14.93;100.00
10470;BME280;5282;47.052;15.458;2022-08-14T03:28:43;97079.47;;;14.95;100.00
10470;BME280;5282;47.052;15.458;2022-08-14T03:31:12;97089.25;;;14.83;100.00
10470;BME280;5282;47.052;15.458;2022-08-14T03:33:40;97086.88;;;14.60;100.00
10470;BME280;5282;47.052;15.458;2022-08-14T03:36:09;97085.00;;;14.54;100.00
10470;BME280;5282;47.052;15.458;2022-08-14T03:38:40;97084.59;;;14.63;100.00
10470;BME280;5282;47.052;15.458;2022-08-14T03:41:08;97080.09;;;14.77;100.00
10470;BME280;5282;47.052;15.458;2022-08-14T03:43:39;97075.28;;;14.86;100.00
10470;BME280;5282;47.052;15.458;2022-08-14T03:46:06;97079.25;;;14.84;100.00
10470;BME280;5282;47.052;15.458;2022-08-14T03:48:39;97082.31;;;14.67;100.00
10470;BME280;5282;47.052;15.458;2022-08-14T03:51:07;97077.91;;;14.53;100.00
10470;BME280;5282;47.052;15.458;2022-08-14T03:53:34;97072.50;;;14.59;100.00
10470;BME280;5282;47.052;15.458;2022-08-14T03:56:03;97066.72;;;14.76;100.00
10470;BME280;5282;47.052;15.458;2022-08-14T03:58:30;97068.59;;;14.75;100.00
10470;BME280;5282;47.052;15.458;2022-08-14T04:00:57;97060.06;;;14.72;100.00
10470;BME280;5282;47.052;15.458;2022-08-14T04:03:27;97073.41;;;14.80;100.00
10470;BME280;5282;47.052;15.458;2022-08-14T04:05:55;97077.09;;;14.65;100.00
10470;BME280;5282;47.052;15.458;2022-08-14T04:08:22;97067.56;;;14.70;100.00
10470;BME280;5282;47.052;15.458;2022-08-14T04:10:49;97075.19;;;14.53;100.00
10470;BME280;5282;47.052;15.458;2022-08-14T04:13:16;97082.88;;;14.56;100.00
10470;BME280;5282;47.052;15.458;2022-08-14T04:15:44;97075.88;;;14.68;100.00
10470;BME280;5282;47.052;15.458;2022-08-14T04:18:11;97072.47;;;14.53;100.00
10470;BME280;5282;47.052;15.458;2022-08-14T04:20:41;97076.03;;;14.60;100.00
10470;BME280;5282;47.052;15.458;2022-08-14T04:23:09;97072.34;;;14.68;100.00
10470;BME280;5282;47.052;15.458;2022-08-14T04:25:36;97069.41;;;14.69;100.00
10470;BME280;5282;47.052;15.458;2022-08-14T04:28:06;97068.19;;;14.72;100.00
10470;BME280;5282;47.052;15.458;2022-08-14T04:30:36;97076.28;;;14.65;100.00
10470;BME280;5282;47.052;15.458;2022-08-14T04:33:04;97074.38;;;14.59;100.00
10470;BME280;5282;47.052;15.458;2022-08-14T04:35:33;97075.22;;;14.66;100.00
10470;BME280;5282;47.052;15.458;2022-08-14T04:38:05;97070.25;;;14.70;100.00
10470;BME280;5282;47.052;15.458;2022-08-14T04:40:50;97070.69;;;14.73;100.00
10470;BME280;5282;47.052;15.458;2022-08-14T04:43:35;97071.31;;;14.75;100.00
10470;BME280;5282;47.052;15.458;2022-08-14T04:46:02;97073.81;;;14.77;100.00
10470;BME280;5282;47.052;15.458;2022-08-14T04:48:30;97076.31;;;14.78;100.00
10470;BME280;5282;47.052;15.458;2022-08-14T04:50:56;97077.16;;;14.86;100.00
10470;BME280;5282;47.052;15.458;2022-08-14T04:53:26;97070.50;;;14.88;100.00
10470;BME280;5282;47.052;15.458;2022-08-14T04:55:55;97074.66;;;14.91;100.00
10470;BME280;5282;47.052;15.458;2022-08-14T04:58:24;97071.13;;;14.97;100.00
10470;BME280;5282;47.052;15.458;2022-08-14T05:00:52;97068.03;;;15.00;100.00
10470;BME280;5282;47.052;15.458;2022-08-14T05:03:21;97071.97;;;15.04;100.00
10470;BME280;5282;47.052;15.458;2022-08-14T05:05:49;97070.75;;;15.07;100.00
10470;BME280;5282;47.052;15.458;2022-08-14T05:08:17;97068.84;;;15.07;100.00
10470;BME280;5282;47.052;15.458;2022-08-14T05:10:48;97072.59;;;15.13;100.00
10470;BME280;5282;47.052;15.458;2022-08-14T05:13:18;97069.06;;;15.13;100.00
10470;BME280;5282;47.052;15.458;2022-08-14T05:15:46;97064.88;;;15.17;100.00
10470;BME280;5282;47.052;15.458;2022-08-14T05:18:15;97066.34;;;15.19;100.00
10470;BME280;5282;47.052;15.458;2022-08-14T05:20:45;97068.00;;;15.27;100.00
10470;BME280;5282;47.052;15.458;2022-08-14T05:23:14;97061.94;;;15.32;100.00
10470;BME280;5282;47.052;15.458;2022-08-14T05:25:43;97067.19;;;15.33;100.00
10470;BME280;5282;47.052;15.458;2022-08-14T05:28:13;97058.84;;;15.28;100.00
10470;BME280;5282;47.052;15.458;2022-08-14T05:30:47;97061.13;;;15.31;100.00
10470;BME280;5282;47.052;15.458;2022-08-14T05:33:15;97055.94;;;15.30;100.00
10470;BME280;5282;47.052;15.458;2022-08-14T05:35:46;97061.75;;;15.33;100.00
10470;BME280;5282;47.052;15.458;2022-08-14T05:38:15;97059.06;;;15.40;100.00
10470;BME280;5282;47.052;15.458;2022-08-14T05:40:43;97052.56;;;15.48;100.00
10470;BME280;5282;47.052;15.458;2022-08-14T05:43:12;97047.13;;;15.48;100.00
10470;BME280;5282;47.052;15.458;2022-08-14T05:45:40;97053.59;;;15.53;100.00
10470;BME280;5282;47.052;15.458;2022-08-14T05:48:13;97054.22;;;15.55;100.00
10470;BME280;5282;47.052;15.458;2022-08-14T05:50:40;97052.75;;;15.60;100.00
10470;BME280;5282;47.052;15.458;2022-08-14T05:53:07;97052.53;;;15.68;100.00
10470;BME280;5282;47.052;15.458;2022-08-14T05:55:34;97057.13;;;15.74;100.00
10470;BME280;5282;47.052;15.458;2022-08-14T05:58:03;97055.44;;;15.80;100.00
10470;BME280;5282;47.052;15.458;2022-08-14T06:00:33;97050.41;;;15.83;100.00
10470;BME280;5282;47.052;15.458;2022-08-14T06:03:03;97053.31;;;15.82;100.00
10470;BME280;5282;47.052;15.458;2022-08-14T06:05:31;97049.78;;;15.88;100.00
10470;BME280;5282;47.052;15.458;2022-08-14T06:07:59;97039.16;;;15.93;100.00
10470;BME280;5282;47.052;15.458;2022-08-14T06:10:27;97048.72;;;16.02;100.00
10470;BME280;5282;47.052;15.458;2022-08-14T06:12:54;97048.88;;;16.08;100.00
10470;BME280;5282;47.052;15.458;2022-08-14T06:15:21;97039.03;;;16.13;100.00
10470;BME280;5282;47.052;15.458;2022-08-14T06:17:50;97039.03;;;16.20;100.00
10470;BME280;5282;47.052;15.458;2022-08-14T06:20:18;97040.25;;;16.31;100.00
10470;BME280;5282;47.052;15.458;2022-08-14T06:22:46;97049.41;;;16.37;100.00
10470;BME280;5282;47.052;15.458;2022-08-14T06:25:14;97039.75;;;16.41;100.00
10470;BME280;5282;47.052;15.458;2022-08-14T06:27:43;97046.06;;;16.34;100.00
10470;BME280;5282;47.052;15.458;2022-08-14T06:30:14;97041.38;;;16.48;100.00
10470;BME280;5282;47.052;15.458;2022-08-14T06:32:43;97041.53;;;16.60;100.00
10470;BME280;5282;47.052;15.458;2022-08-14T06:35:12;97039.19;;;16.71;100.00
10470;BME280;5282;47.052;15.458;2022-08-14T06:37:43;97042.53;;;16.73;100.00
10470;BME280;5282;47.052;15.458;2022-08-14T06:40:15;97039.56;;;16.74;100.00
10470;BME280;5282;47.052;15.458;2022-08-14T06:42:43;97043.63;;;16.90;100.00
10470;BME280;5282;47.052;15.458;2022-08-14T06:45:10;97036.03;;;17.06;100.00
10470;BME280;5282;47.052;15.458;2022-08-14T06:47:39;97042.19;;;17.20;100.00
10470;BME280;5282;47.052;15.458;2022-08-14T06:50:10;97039.19;;;17.28;100.00
10470;BME280;5282;47.052;15.458;2022-08-14T06:52:37;97033.75;;;17.28;100.00
10470;BME280;5282;47.052;15.458;2022-08-14T06:55:09;97029.91;;;17.36;100.00
10470;BME280;5282;47.052;15.458;2022-08-14T06:57:40;97036.53;;;17.47;100.00
10470;BME280;5282;47.052;15.458;2022-08-14T07:00:09;97027.22;;;17.54;100.00
10470;BME280;5282;47.052;15.458;2022-08-14T07:02:37;97034.72;;;17.59;100.00
10470;BME280;5282;47.052;15.458;2022-08-14T07:05:21;97030.41;;;17.70;100.00
10470;BME280;5282;47.052;15.458;2022-08-14T07:08:11;97030.72;;;17.80;100.00
10470;BME280;5282;47.052;15.458;2022-08-14T07:10:40;97028.78;;;17.87;100.00
10470;BME280;5282;47.052;15.458;2022-08-14T07:13:11;97036.44;;;17.97;100.00
10470;BME280;5282;47.052;15.458;2022-08-14T07:15:39;97038.25;;;18.03;100.00
10470;BME280;5282;47.052;15.458;2022-08-14T07:18:07;97033.31;;;18.12;100.00
10470;BME280;5282;47.052;15.458;2022-08-14T07:20:35;97033.16;;;18.26;100.00
10470;BME280;5282;47.052;15.458;2022-08-14T07:23:03;97028.38;;;18.40;100.00
10470;BME280;5282;47.052;15.458;2022-08-14T07:25:31;97034.47;;;18.54;100.00
10470;BME280;5282;47.052;15.458;2022-08-14T07:27:59;97029.16;;;18.59;100.00
10470;BME280;5282;47.052;15.458;2022-08-14T07:30:28;97030.50;;;18.68;100.00
10470;BME280;5282;47.052;15.458;2022-08-14T07:32:55;97032.44;;;18.79;100.00
10470;BME280;5282;47.052;15.458;2022-08-14T07:35:22;97030.44;;;18.87;100.00
10470;BME280;5282;47.052;15.458;2022-08-14T07:37:49;97031.78;;;18.96;100.00
10470;BME280;5282;47.052;15.458;2022-08-14T07:40:18;97029.19;;;19.01;100.00
10470;BME280;5282;47.052;15.458;2022-08-14T07:42:45;97025.66;;;19.13;100.00
10470;BME280;5282;47.052;15.458;2022-08-14T07:45:12;97021.50;;;19.22;100.00
10470;BME280;5282;47.052;15.458;2022-08-14T07:47:41;97033.13;;;19.29;100.00
10470;BME280;5282;47.052;15.458;2022-08-14T07:50:11;97029.47;;;19.35;100.00
10470;BME280;5282;47.052;15.458;2022-08-14T07:52:40;97026.03;;;19.52;100.00
10470;BME280;5282;47.052;15.458;2022-08-14T07:55:08;97031.50;;;19.64;100.00
10470;BME280;5282;47.052;15.458;2022-08-14T07:57:35;97028.28;;;19.79;100.00
10470;BME280;5282;47.052;15.458;2022-08-14T08:00:06;97029.38;;;19.90;100.00
10470;BME280;5282;47.052;15.458;2022-08-14T08:02:38;97033.03;;;19.95;100.00
10470;BME280;5282;47.052;15.458;2022-08-14T08:05:08;97036.69;;;20.13;100.00
10470;BME280;5282;47.052;15.458;2022-08-14T08:07:36;97026.09;;;20.16;100.00
10470;BME280;5282;47.052;15.458;2022-08-14T08:10:05;97029.97;;;20.32;100.00
10470;BME280;5282;47.052;15.458;2022-08-14T08:12:53;97025.06;;;20.46;100.00
10470;BME280;5282;47.052;15.458;2022-08-14T08:15:24;97027.69;;;20.41;98.77
10470;BME280;5282;47.052;15.458;2022-08-14T08:17:52;97036.13;;;20.69;97.93
10470;BME280;5282;47.052;15.458;2022-08-14T08:20:23;97036.00;;;20.75;95.78
10470;BME280;5282;47.052;15.458;2022-08-14T08:22:52;97038.34;;;20.84;93.24
10470;BME280;5282;47.052;15.458;2022-08-14T08:25:21;97039.63;;;20.93;90.39
10470;BME280;5282;47.052;15.458;2022-08-14T08:27:57;97032.72;;;21.07;90.56
10470;BME280;5282;47.052;15.458;2022-08-14T08:30:29;97034.72;;;21.12;90.40
10470;BME280;5282;47.052;15.458;2022-08-14T08:32:58;97039.38;;;21.29;90.29
10470;BME280;5282;47.052;15.458;2022-08-14T08:35:28;97037.56;;;21.51;88.73
10470;BME280;5282;47.052;15.458;2022-08-14T08:38:00;97036.47;;;21.52;88.32
10470;BME280;5282;47.052;15.458;2022-08-14T08:40:29;97039.13;;;21.64;85.99
10470;BME280;5282;47.052;15.458;2022-08-14T08:43:00;97030.69;;;21.66;88.68
10470;BME280;5282;47.052;15.458;2022-08-14T08:45:27;97029.91;;;21.87;88.61
10470;BME280;5282;47.052;15.458;2022-08-14T08:47:54;97029.00;;;22.04;86.91
10470;BME280;5282;47.052;15.458;2022-08-14T08:50:22;97018.31;;;22.25;87.31
10470;BME280;5282;47.052;15.458;2022-08-14T08:52:53;97028.28;;;22.53;85.46
10470;BME280;5282;47.052;15.458;2022-08-14T08:55:29;97021.53;;;22.66;83.34
10470;BME280;5282;47.052;15.458;2022-08-14T08:57:58;97015.16;;;22.88;81.08
10470;BME280;5282;47.052;15.458;2022-08-14T09:00:25;97012.53;;;22.98;79.66
10470;BME280;5282;47.052;15.458;2022-08-14T09:03:01;97009.88;;;23.08;79.28
10470;BME280;5282;47.052;15.458;2022-08-14T09:05:30;97008.94;;;23.25;77.67
10470;BME280;5282;47.052;15.458;2022-08-14T09:08:14;97005.47;;;23.40;71.25
10470;BME280;5282;47.052;15.458;2022-08-14T09:10:42;97001.13;;;23.44;66.76
10470;BME280;5282;47.052;15.458;2022-08-14T09:13:11;97002.63;;;23.62;67.34
10470;BME280;5282;47.052;15.458;2022-08-14T09:15:39;96990.09;;;23.82;66.66
10470;BME280;5282;47.052;15.458;2022-08-14T09:18:07;97002.59;;;24.00;62.00
10470;BME280;5282;47.052;15.458;2022-08-14T09:20:37;96991.66;;;24.21;58.77
10470;BME280;5282;47.052;15.458;2022-08-14T09:23:06;96987.34;;;24.45;61.43
10470;BME280;5282;47.052;15.458;2022-08-14T09:25:35;96984.69;;;24.71;62.95
10470;BME280;5282;47.052;15.458;2022-08-14T09:28:03;96982.78;;;24.98;57.80
10470;BME280;5282;47.052;15.458;2022-08-14T09:30:33;96983.63;;;25.14;54.20
10470;BME280;5282;47.052;15.458;2022-08-14T09:33:21;96976.75;;;25.21;47.79
10470;BME280;5282;47.052;15.458;2022-08-14T09:36:21;96980.31;;;25.37;50.47
10470;BME280;5282;47.052;15.458;2022-08-14T09:38:59;96981.13;;;25.64;45.58
10470;BME280;5282;47.052;15.458;2022-08-14T09:41:46;96979.16;;;25.80;42.99
10470;BME280;5282;47.052;15.458;2022-08-14T09:44:20;96972.50;;;25.91;42.93
10470;BME280;5282;47.052;15.458;2022-08-14T09:46:54;96969.69;;;26.01;45.38
10470;BME280;5282;47.052;15.458;2022-08-14T09:49:29;96965.81;;;26.08;45.71
10470;BME280;5282;47.052;15.458;2022-08-14T09:52:03;96963.34;;;26.06;46.50
10470;BME280;5282;47.052;15.458;2022-08-14T09:54:35;96958.94;;;26.10;45.65
10470;BME280;5282;47.052;15.458;2022-08-14T09:57:05;96950.81;;;26.34;45.69
10470;BME280;5282;47.052;15.458;2022-08-14T09:59:39;96947.97;;;26.55;43.94
10470;BME280;5282;47.052;15.458;2022-08-14T10:02:19;96946.00;;;26.61;43.51
10470;BME280;5282;47.052;15.458;2022-08-14T10:04:59;96947.22;;;26.84;43.26
10470;BME280;5282;47.052;15.458;2022-08-14T10:07:31;96952.16;;;26.42;43.20
10470;BME280;5282;47.052;15.458;2022-08-14T10:09:59;96951.94;;;26.84;45.17
10470;BME280;5282;47.052;15.458;2022-08-14T10:12:41;96953.84;;;26.83;43.05
10470;BME280;5282;47.052;15.458;2022-08-14T10:15:16;96963.78;;;26.89;42.86
10470;BME280;5282;47.052;15.458;2022-08-14T10:17:43;96949.56;;;27.01;44.31
10470;BME280;5282;47.052;15.458;2022-08-14T10:20:11;96951.00;;;27.28;44.61
10470;BME280;5282;47.052;15.458;2022-08-14T10:22:40;96955.50;;;27.53;43.84
10470;BME280;5282;47.052;15.458;2022-08-14T10:25:11;96944.72;;;27.22;42.16
10470;BME280;5282;47.052;15.458;2022-08-14T10:27:43;96953.03;;;26.77;42.92
10470;BME280;5282;47.052;15.458;2022-08-14T10:30:17;96948.56;;;26.92;42.49
10470;BME280;5282;47.052;15.458;2022-08-14T10:32:45;96940.78;;;27.29;41.68
10470;BME280;5282;47.052;15.458;2022-08-14T10:35:15;96935.38;;;27.48;40.70
10470;BME280;5282;47.052;15.458;2022-08-14T10:37:45;96940.31;;;27.51;41.62
10470;BME280;5282;47.052;15.458;2022-08-14T10:40:24;96941.22;;;27.70;42.53
10470;BME280;5282;47.052;15.458;2022-08-14T10:42:54;96942.56;;;27.73;40.41
10470;BME280;5282;47.052;15.458;2022-08-14T10:45:22;96944.16;;;27.79;40.45
10470;BME280;5282;47.052;15.458;2022-08-14T10:47:50;96937.47;;;28.10;43.87
10470;BME280;5282;47.052;15.458;2022-08-14T10:50:28;96939.38;;;28.33;41.23
10470;BME280;5282;47.052;15.458;2022-08-14T10:52:56;96934.28;;;28.60;40.08
10470;BME280;5282;47.052;15.458;2022-08-14T10:55:31;96933.91;;;28.28;40.88
10470;BME280;5282;47.052;15.458;2022-08-14T10:58:06;96933.75;;;28.58;41.42
10470;BME280;5282;47.052;15.458;2022-08-14T11:00:37;96930.78;;;28.92;40.96
10470;BME280;5282;47.052;15.458;2022-08-14T11:03:06;96923.53;;;28.58;39.79
10470;BME280;5282;47.052;15.458;2022-08-14T11:05:39;96926.19;;;28.63;41.27
10470;BME280;5282;47.052;15.458;2022-08-14T11:08:08;96926.59;;;28.76;40.48
10470;BME280;5282;47.052;15.458;2022-08-14T11:10:42;96920.25;;;29.08;40.11
10470;BME280;5282;47.052;15.458;2022-08-14T11:13:14;96907.16;;;29.28;41.34
10470;BME280;5282;47.052;15.458;2022-08-14T11:15:43;96912.19;;;28.93;37.32
10470;BME280;5282;47.052;15.458;2022-08-14T11:18:10;96906.69;;;28.74;38.60
10470;BME280;5282;47.052;15.458;2022-08-14T11:20:38;96905.69;;;29.17;39.81
10470;BME280;5282;47.052;15.458;2022-08-14T11:23:08;96903.69;;;28.89;38.66
10470;BME280;5282;47.052;15.458;2022-08-14T11:25:37;96900.59;;;28.91;38.97
10470;BME280;5282;47.052;15.458;2022-08-14T11:28:05;96892.03;;;29.39;38.71
10470;BME280;5282;47.052;15.458;2022-08-14T11:30:34;96897.66;;;29.01;37.76
10470;BME280;5282;47.052;15.458;2022-08-14T11:33:06;96882.19;;;29.14;38.65
10470;BME280;5282;47.052;15.458;2022-08-14T11:35:33;96891.97;;;29.25;38.17
10470;BME280;5282;47.052;15.458;2022-08-14T11:38:04;96888.56;;;28.82;38.79
10470;BME280;5282;47.052;15.458;2022-08-14T11:40:34;96890.94;;;28.88;36.78
10470;BME280;5282;47.052;15.458;2022-08-14T11:43:03;96892.81;;;28.93;37.14
10470;BME280;5282;47.052;15.458;2022-08-14T11:45:34;96889.16;;;29.59;38.39
10470;BME280;5282;47.052;15.458;2022-08-14T11:48:13;96892.22;;;28.96;37.34
10470;BME280;5282;47.052;15.458;2022-08-14T11:50:40;96894.34;;;28.99;38.47
10470;BME280;5282;47.052;15.458;2022-08-14T11:53:18;96888.75;;;29.65;37.59
10470;BME280;5282;47.052;15.458;2022-08-14T11:55:46;96888.66;;;29.43;35.72
10470;BME280;5282;47.052;15.458;2022-08-14T11:58:15;96884.84;;;29.80;37.42
10470;BME280;5282;47.052;15.458;2022-08-14T12:00:48;96889.91;;;30.06;36.96
10470;BME280;5282;47.052;15.458;2022-08-14T12:03:17;96885.38;;;29.82;36.76
10470;BME280;5282;47.052;15.458;2022-08-14T12:05:45;96885.25;;;30.15;37.32
10470;BME280;5282;47.052;15.458;2022-08-14T12:08:14;96883.09;;;30.12;37.40
10470;BME280;5282;47.052;15.458;2022-08-14T12:10:42;96883.41;;;30.11;35.69
10470;BME280;5282;47.052;15.458;2022-08-14T12:13:11;96887.00;;;29.69;36.60
10470;BME280;5282;47.052;15.458;2022-08-14T12:15:40;96882.19;;;30.03;36.65
10470;BME280;5282;47.052;15.458;2022-08-14T12:18:09;96876.03;;;30.06;36.56
10470;BME280;5282;47.052;15.458;2022-08-14T12:20:38;96874.94;;;30.30;36.05
10470;BME280;5282;47.052;15.458;2022-08-14T12:23:19;96877.16;;;30.05;34.90
10470;BME280;5282;47.052;15.458;2022-08-14T12:25:48;96871.00;;;30.08;35.77
10470;BME280;5282;47.052;15.458;2022-08-14T12:28:15;96850.75;;;29.94;36.28
10470;BME280;5282;47.052;15.458;2022-08-14T12:30:44;96867.88;;;30.10;34.06
10470;BME280;5282;47.052;15.458;2022-08-14T12:33:23;96857.72;;;30.05;36.12
10470;BME280;5282;47.052;15.458;2022-08-14T12:35:53;96860.03;;;30.26;38.05
10470;BME280;5282;47.052;15.458;2022-08-14T12:38:31;96865.50;;;30.31;33.93
10470;BME280;5282;47.052;15.458;2022-08-14T12:41:01;96854.63;;;30.07;36.20
10470;BME280;5282;47.052;15.458;2022-08-14T12:43:28;96845.31;;;30.39;35.69
10470;BME280;5282;47.052;15.458;2022-08-14T12:45:55;96843.19;;;30.59;34.87
10470;BME280;5282;47.052;15.458;2022-08-14T12:48:23;96846.50;;;30.10;34.00
10470;BME280;5282;47.052;15.458;2022-08-14T12:50:53;96847.00;;;30.63;35.02
10470;BME280;5282;47.052;15.458;2022-08-14T12:53:32;96845.41;;;30.71;35.75
10470;BME280;5282;47.052;15.458;2022-08-14T12:56:01;96840.91;;;30.61;33.18
10470;BME280;5282;47.052;15.458;2022-08-14T12:58:29;96836.94;;;30.76;34.97
10470;BME280;5282;47.052;15.458;2022-08-14T13:00:57;96830.81;;;30.88;34.61
10470;BME280;5282;47.052;15.458;2022-08-14T13:03:28;96831.19;;;30.95;34.04
10470;BME280;5282;47.052;15.458;2022-08-14T13:05:57;96821.19;;;30.48;33.36
10470;BME280;5282;47.052;15.458;2022-08-14T13:08:24;96814.72;;;30.53;33.66